sensor_id;sensor_type;location;lat;lon;timestamp;P1;durP1;ratioP1;P2;durP2;ratioP2
58472;SDS011;44775;51.564;5.460;2022-08-19T00:00:01;29.23;;;23.27;;
58472;SDS011;44775;51.564;5.460;2022-08-19T00:02:29;25.92;;;21.45;;
58472;SDS011;44775;51.564;5.460;2022-08-19T00:04:55;26.55;;;21.70;;
58472;SDS011;44775;51.564;5.460;2022-08-19T00:07:21;26.45;;;21.77;;
58472;SDS011;44775;51.564;5.460;2022-08-19T00:09:46;28.60;;;23.05;;
58472;SDS011;44775;51.564;5.460;2022-08-19T00:12:12;26.25;;;22.30;;
58472;SDS011;44775;51.564;5.460;2022-08-19T00:14:38;33.00;;;23.70;;
58472;SDS011;44775;51.564;5.460;2022-08-19T00:17:04;29.58;;;22.27;;
58472;SDS011;44775;51.564;5.460;2022-08-19T00:19:31;30.27;;;23.05;;
58472;SDS011;44775;51.564;5.460;2022-08-19T00:21:57;30.20;;;22.77;;
58472;SDS011;44775;51.564;5.460;2022-08-19T00:24:23;31.70;;;22.98;;
58472;SDS011;44775;51.564;5.460;2022-08-19T00:26:49;31.50;;;23.38;;
58472;SDS011;44775;51.564;5.460;2022-08-19T00:29:16;35.15;;;24.02;;
58472;SDS011;44775;51.564;5.460;2022-08-19T00:31:43;32.63;;;24.15;;
58472;SDS011;44775;51.564;5.460;2022-08-19T00:34:10;36.65;;;25.67;;
58472;SDS011;44775;51.564;5.460;2022-08-19T00:36:37;38.88;;;26.67;;
58472;SDS011;44775;51.564;5.460;2022-08-19T00:39:02;37.45;;;25.92;;
58472;SDS011;44775;51.564;5.460;2022-08-19T00:41:28;42.47;;;27.55;;
58472;SDS011;44775;51.564;5.460;2022-08-19T00:43:59;40.95;;;27.83;;
58472;SDS011;44775;51.564;5.460;2022-08-19T00:46:26;36.08;;;25.20;;
58472;SDS011;44775;51.564;5.460;2022-08-19T00:48:53;40.38;;;26.70;;
58472;SDS011;44775;51.564;5.460;2022-08-19T00:51:21;39.92;;;28.23;;
58472;SDS011;44775;51.564;5.460;2022-08-19T00:53:48;43.20;;;29.45;;
58472;SDS011;44775;51.564;5.460;2022-08-19T00:56:13;40.58;;;27.58;;
58472;SDS011;44775;51.564;5.460;2022-08-19T00:58:40;45.92;;;29.45;;
58472;SDS011;44775;51.564;5.460;2022-08-19T01:01:06;47.28;;;30.35;;
58472;SDS011;44775;51.564;5.460;2022-08-19T01:03:32;49.85;;;30.48;;
58472;SDS011;44775;51.564;5.460;2022-08-19T01:05:58;47.63;;;29.40;;
58472;SDS011;44775;51.564;5.460;2022-08-19T01:08:25;41.60;;;27.60;;
58472;SDS011;44775;51.564;5.460;2022-08-19T01:10:54;43.75;;;27.70;;
58472;SDS011;44775;51.564;5.460;2022-08-19T01:13:22;44.72;;;30.65;;
58472;SDS011;44775;51.564;5.460;2022-08-19T01:15:55;46.22;;;30.30;;
58472;SDS011;44775;51.564;5.460;2022-08-19T01:18:25;47.55;;;30.52;;
58472;SDS011;44775;51.564;5.460;2022-08-19T01:20:54;48.60;;;31.48;;
58472;SDS011;44775;51.564;5.460;2022-08-19T01:23:23;51.70;;;32.10;;
58472;SDS011;44775;51.564;5.460;2022-08-19T01:26:07;47.42;;;31.83;;
58472;SDS011;44775;51.564;5.460;2022-08-19T01:28:35;53.00;;;32.30;;
58472;SDS011;44775;51.564;5.460;2022-08-19T01:31:01;45.72;;;30.88;;
58472;SDS011;44775;51.564;5.460;2022-08-19T01:33:27;46.83;;;31.35;;
58472;SDS011;44775;51.564;5.460;2022-08-19T01:35:52;50.88;;;32.85;;
58472;SDS011;44775;51.564;5.460;2022-08-19T01:38:22;50.53;;;31.90;;
58472;SDS011;44775;51.564;5.460;2022-08-19T01:40:49;51.88;;;31.55;;
58472;SDS011;44775;51.564;5.460;2022-08-19T01:43:15;51.47;;;33.13;;
58472;SDS011;44775;51.564;5.460;2022-08-19T01:45:41;48.60;;;32.42;;
58472;SDS011;44775;51.564;5.460;2022-08-19T01:48:07;48.55;;;32.03;;
58472;SDS011;44775;51.564;5.460;2022-08-19T01:50:33;51.42;;;32.55;;
58472;SDS011;44775;51.564;5.460;2022-08-19T01:53:00;51.55;;;32.25;;
58472;SDS011;44775;51.564;5.460;2022-08-19T01:55:27;50.63;;;32.85;;
58472;SDS011;44775;51.564;5.460;2022-08-19T01:57:53;51.72;;;33.10;;
58472;SDS011;44775;51.564;5.460;2022-08-19T02:00:23;55.53;;;32.25;;
58472;SDS011;44775;51.564;5.460;2022-08-19T02:02:51;53.90;;;32.85;;
58472;SDS011;44775;51.564;5.460;2022-08-19T02:05:17;52.47;;;32.10;;
58472;SDS011;44775;51.564;5.460;2022-08-19T02:07:43;49.47;;;32.28;;
58472;SDS011;44775;51.564;5.460;2022-08-19T02:10:13;48.97;;;31.35;;
58472;SDS011;44775;51.564;5.460;2022-08-19T02:12:40;50.10;;;31.60;;
58472;SDS011;44775;51.564;5.460;2022-08-19T02:15:06;56.42;;;33.08;;
58472;SDS011;44775;51.564;5.460;2022-08-19T02:17:33;56.05;;;32.97;;
58472;SDS011;44775;51.564;5.460;2022-08-19T02:20:00;60.75;;;34.53;;
58472;SDS011;44775;51.564;5.460;2022-08-19T02:22:26;57.90;;;33.53;;
58472;SDS011;44775;51.564;5.460;2022-08-19T02:24:52;66.00;;;36.85;;
58472;SDS011;44775;51.564;5.460;2022-08-19T02:27:18;61.00;;;36.58;;
58472;SDS011;44775;51.564;5.460;2022-08-19T02:29:45;68.25;;;35.95;;
58472;SDS011;44775;51.564;5.460;2022-08-19T02:32:12;64.97;;;37.07;;
58472;SDS011;44775;51.564;5.460;2022-08-19T02:34:38;68.07;;;38.38;;
58472;SDS011;44775;51.564;5.460;2022-08-19T02:37:04;61.95;;;36.60;;
58472;SDS011;44775;51.564;5.460;2022-08-19T02:39:29;59.30;;;35.90;;
58472;SDS011;44775;51.564;5.460;2022-08-19T02:41:55;67.95;;;36.50;;
58472;SDS011;44775;51.564;5.460;2022-08-19T02:44:21;58.42;;;32.90;;
58472;SDS011;44775;51.564;5.460;2022-08-19T02:46:48;61.92;;;34.97;;
58472;SDS011;44775;51.564;5.460;2022-08-19T02:49:15;68.18;;;37.22;;
58472;SDS011;44775;51.564;5.460;2022-08-19T02:51:42;61.50;;;34.85;;
58472;SDS011;44775;51.564;5.460;2022-08-19T02:54:10;63.20;;;36.15;;
58472;SDS011;44775;51.564;5.460;2022-08-19T02:56:38;65.68;;;37.65;;
58472;SDS011;44775;51.564;5.460;2022-08-19T02:59:04;72.97;;;38.33;;
58472;SDS011;44775;51.564;5.460;2022-08-19T03:01:33;61.38;;;35.40;;
58472;SDS011;44775;51.564;5.460;2022-08-19T03:04:00;62.42;;;36.17;;
58472;SDS011;44775;51.564;5.460;2022-08-19T03:06:27;62.17;;;36.47;;
58472;SDS011;44775;51.564;5.460;2022-08-19T03:08:53;57.65;;;33.40;;
58472;SDS011;44775;51.564;5.460;2022-08-19T03:13:47;58.38;;;34.35;;
58472;SDS011;44775;51.564;5.460;2022-08-19T03:16:17;59.10;;;34.97;;
58472;SDS011;44775;51.564;5.460;2022-08-19T03:18:44;59.97;;;35.07;;
58472;SDS011;44775;51.564;5.460;2022-08-19T03:21:14;58.28;;;33.15;;
58472;SDS011;44775;51.564;5.460;2022-08-19T03:23:41;58.90;;;34.15;;
58472;SDS011;44775;51.564;5.460;2022-08-19T03:26:06;58.78;;;35.20;;
58472;SDS011;44775;51.564;5.460;2022-08-19T03:28:32;56.35;;;33.38;;
58472;SDS011;44775;51.564;5.460;2022-08-19T03:31:03;59.08;;;34.10;;
58472;SDS011;44775;51.564;5.460;2022-08-19T03:33:32;61.30;;;35.92;;
58472;SDS011;44775;51.564;5.460;2022-08-19T03:36:00;63.08;;;36.38;;
58472;SDS011;44775;51.564;5.460;2022-08-19T03:38:52;68.93;;;37.63;;
58472;SDS011;44775;51.564;5.460;2022-08-19T03:41:22;70.43;;;39.05;;
58472;SDS011;44775;51.564;5.460;2022-08-19T03:43:49;68.18;;;38.58;;
58472;SDS011;44775;51.564;5.460;2022-08-19T03:46:18;69.28;;;37.85;;
58472;SDS011;44775;51.564;5.460;2022-08-19T03:48:46;73.97;;;39.55;;
58472;SDS011;44775;51.564;5.460;2022-08-19T03:51:16;78.18;;;39.88;;
58472;SDS011;44775;51.564;5.460;2022-08-19T03:53:50;78.72;;;43.00;;
58472;SDS011;44775;51.564;5.460;2022-08-19T03:56:16;77.05;;;40.38;;
58472;SDS011;44775;51.564;5.460;2022-08-19T03:58:42;88.53;;;43.92;;
58472;SDS011;44775;51.564;5.460;2022-08-19T04:01:09;85.03;;;42.33;;
58472;SDS011;44775;51.564;5.460;2022-08-19T04:03:37;79.43;;;42.30;;
58472;SDS011;44775;51.564;5.460;2022-08-19T04:06:12;89.40;;;44.13;;
58472;SDS011;44775;51.564;5.460;2022-08-19T04:08:41;98.57;;;48.42;;
58472;SDS011;44775;51.564;5.460;2022-08-19T04:11:18;102.78;;;49.97;;
58472;SDS011;44775;51.564;5.460;2022-08-19T04:13:46;98.40;;;47.72;;
58472;SDS011;44775;51.564;5.460;2022-08-19T04:16:12;101.57;;;48.22;;
58472;SDS011;44775;51.564;5.460;2022-08-19T04:18:38;93.63;;;48.17;;
58472;SDS011;44775;51.564;5.460;2022-08-19T04:21:05;111.70;;;50.72;;
58472;SDS011;44775;51.564;5.460;2022-08-19T04:23:31;103.40;;;49.88;;
58472;SDS011;44775;51.564;5.460;2022-08-19T04:25:57;88.90;;;46.55;;
58472;SDS011;44775;51.564;5.460;2022-08-19T04:28:23;95.88;;;46.55;;
58472;SDS011;44775;51.564;5.460;2022-08-19T04:30:50;100.47;;;47.22;;
58472;SDS011;44775;51.564;5.460;2022-08-19T04:33:20;102.47;;;48.77;;
58472;SDS011;44775;51.564;5.460;2022-08-19T04:35:48;93.53;;;45.08;;
58472;SDS011;44775;51.564;5.460;2022-08-19T04:38:15;90.25;;;46.70;;
58472;SDS011;44775;51.564;5.460;2022-08-19T04:40:43;99.50;;;49.80;;
58472;SDS011;44775;51.564;5.460;2022-08-19T04:43:29;90.45;;;47.10;;
58472;SDS011;44775;51.564;5.460;2022-08-19T04:45:55;96.82;;;48.35;;
58472;SDS011;44775;51.564;5.460;2022-08-19T04:48:22;95.63;;;48.47;;
58472;SDS011;44775;51.564;5.460;2022-08-19T04:50:54;104.78;;;51.55;;
58472;SDS011;44775;51.564;5.460;2022-08-19T04:53:33;118.75;;;54.63;;
58472;SDS011;44775;51.564;5.460;2022-08-19T04:56:03;101.82;;;51.17;;
58472;SDS011;44775;51.564;5.460;2022-08-19T04:58:32;95.80;;;47.08;;
58472;SDS011;44775;51.564;5.460;2022-08-19T05:00:58;91.90;;;48.35;;
58472;SDS011;44775;51.564;5.460;2022-08-19T05:03:25;109.85;;;53.85;;
58472;SDS011;44775;51.564;5.460;2022-08-19T05:05:51;115.55;;;54.67;;
58472;SDS011;44775;51.564;5.460;2022-08-19T05:08:18;122.30;;;53.83;;
58472;SDS011;44775;51.564;5.460;2022-08-19T05:10:49;115.35;;;53.90;;
58472;SDS011;44775;51.564;5.460;2022-08-19T05:13:16;113.75;;;53.90;;
58472;SDS011;44775;51.564;5.460;2022-08-19T05:15:43;124.38;;;59.60;;
58472;SDS011;44775;51.564;5.460;2022-08-19T05:18:09;122.63;;;57.75;;
58472;SDS011;44775;51.564;5.460;2022-08-19T05:20:54;124.10;;;58.88;;
58472;SDS011;44775;51.564;5.460;2022-08-19T05:23:38;129.77;;;62.50;;
58472;SDS011;44775;51.564;5.460;2022-08-19T05:26:04;124.18;;;59.22;;
58472;SDS011;44775;51.564;5.460;2022-08-19T05:28:30;131.35;;;62.50;;
58472;SDS011;44775;51.564;5.460;2022-08-19T05:30:56;134.15;;;60.75;;
58472;SDS011;44775;51.564;5.460;2022-08-19T05:33:22;133.25;;;62.53;;
58472;SDS011;44775;51.564;5.460;2022-08-19T05:35:49;134.80;;;62.85;;
58472;SDS011;44775;51.564;5.460;2022-08-19T05:38:16;136.73;;;63.28;;
58472;SDS011;44775;51.564;5.460;2022-08-19T05:40:42;132.95;;;63.67;;
58472;SDS011;44775;51.564;5.460;2022-08-19T05:43:14;133.15;;;64.28;;
58472;SDS011;44775;51.564;5.460;2022-08-19T05:48:09;119.93;;;57.28;;
58472;SDS011;44775;51.564;5.460;2022-08-19T05:50:39;112.60;;;58.15;;
58472;SDS011;44775;51.564;5.460;2022-08-19T05:53:07;114.18;;;57.30;;
58472;SDS011;44775;51.564;5.460;2022-08-19T05:55:34;119.50;;;59.25;;
58472;SDS011;44775;51.564;5.460;2022-08-19T05:58:00;119.70;;;60.53;;
58472;SDS011;44775;51.564;5.460;2022-08-19T06:00:26;128.60;;;59.03;;
58472;SDS011;44775;51.564;5.460;2022-08-19T06:02:52;114.70;;;56.40;;
58472;SDS011;44775;51.564;5.460;2022-08-19T06:05:19;98.63;;;52.88;;
58472;SDS011;44775;51.564;5.460;2022-08-19T06:07:45;104.22;;;54.50;;
58472;SDS011;44775;51.564;5.460;2022-08-19T06:10:10;107.25;;;54.45;;
58472;SDS011;44775;51.564;5.460;2022-08-19T06:12:36;112.07;;;56.38;;
58472;SDS011;44775;51.564;5.460;2022-08-19T06:15:12;108.75;;;53.45;;
58472;SDS011;44775;51.564;5.460;2022-08-19T06:17:38;109.95;;;57.00;;
58472;SDS011;44775;51.564;5.460;2022-08-19T06:20:04;112.18;;;57.10;;
58472;SDS011;44775;51.564;5.460;2022-08-19T06:22:31;111.22;;;57.05;;
58472;SDS011;44775;51.564;5.460;2022-08-19T06:25:03;112.97;;;56.72;;
58472;SDS011;44775;51.564;5.460;2022-08-19T06:27:29;110.95;;;55.72;;
58472;SDS011;44775;51.564;5.460;2022-08-19T06:29:56;98.38;;;53.67;;
58472;SDS011;44775;51.564;5.460;2022-08-19T06:32:21;100.53;;;53.22;;
58472;SDS011;44775;51.564;5.460;2022-08-19T06:34:47;99.75;;;53.20;;
58472;SDS011;44775;51.564;5.460;2022-08-19T06:37:12;97.38;;;52.78;;
58472;SDS011;44775;51.564;5.460;2022-08-19T06:39:39;88.72;;;48.63;;
58472;SDS011;44775;51.564;5.460;2022-08-19T06:42:06;90.38;;;48.50;;
58472;SDS011;44775;51.564;5.460;2022-08-19T06:44:35;90.28;;;49.03;;
58472;SDS011;44775;51.564;5.460;2022-08-19T06:47:03;84.68;;;43.72;;
58472;SDS011;44775;51.564;5.460;2022-08-19T06:49:33;70.30;;;41.15;;
58472;SDS011;44775;51.564;5.460;2022-08-19T06:52:04;70.75;;;41.03;;
58472;SDS011;44775;51.564;5.460;2022-08-19T06:54:30;70.28;;;41.00;;
58472;SDS011;44775;51.564;5.460;2022-08-19T06:56:57;65.60;;;37.88;;
58472;SDS011;44775;51.564;5.460;2022-08-19T06:59:27;58.28;;;36.65;;
58472;SDS011;44775;51.564;5.460;2022-08-19T07:01:54;56.90;;;34.33;;
58472;SDS011;44775;51.564;5.460;2022-08-19T07:04:22;61.55;;;35.17;;
58472;SDS011;44775;51.564;5.460;2022-08-19T07:09:21;48.65;;;31.17;;
58472;SDS011;44775;51.564;5.460;2022-08-19T07:11:47;48.60;;;29.85;;
58472;SDS011;44775;51.564;5.460;2022-08-19T07:14:16;46.00;;;30.15;;
58472;SDS011;44775;51.564;5.460;2022-08-19T07:16:44;47.92;;;30.90;;
58472;SDS011;44775;51.564;5.460;2022-08-19T07:19:11;46.70;;;29.52;;
58472;SDS011;44775;51.564;5.460;2022-08-19T07:21:37;48.78;;;32.10;;
58472;SDS011;44775;51.564;5.460;2022-08-19T07:24:03;52.45;;;32.65;;
58472;SDS011;44775;51.564;5.460;2022-08-19T07:26:31;53.42;;;33.83;;
58472;SDS011;44775;51.564;5.460;2022-08-19T07:28:58;54.97;;;32.95;;
58472;SDS011;44775;51.564;5.460;2022-08-19T07:31:26;55.05;;;33.97;;
58472;SDS011;44775;51.564;5.460;2022-08-19T07:33:54;56.30;;;35.92;;
58472;SDS011;44775;51.564;5.460;2022-08-19T07:36:22;57.15;;;37.60;;
58472;SDS011;44775;51.564;5.460;2022-08-19T07:38:57;58.47;;;34.85;;
58472;SDS011;44775;51.564;5.460;2022-08-19T07:41:24;56.95;;;34.45;;
58472;SDS011;44775;51.564;5.460;2022-08-19T07:43:51;59.67;;;35.83;;
58472;SDS011;44775;51.564;5.460;2022-08-19T07:46:18;57.78;;;35.22;;
58472;SDS011;44775;51.564;5.460;2022-08-19T07:48:46;53.80;;;35.33;;
58472;SDS011;44775;51.564;5.460;2022-08-19T07:51:12;55.08;;;33.67;;
58472;SDS011;44775;51.564;5.460;2022-08-19T07:53:41;53.25;;;32.30;;
58472;SDS011;44775;51.564;5.460;2022-08-19T07:56:08;53.17;;;33.40;;
58472;SDS011;44775;51.564;5.460;2022-08-19T07:58:36;54.70;;;34.20;;
58472;SDS011;44775;51.564;5.460;2022-08-19T08:01:03;57.00;;;35.35;;
58472;SDS011;44775;51.564;5.460;2022-08-19T08:03:30;54.97;;;33.70;;
58472;SDS011;44775;51.564;5.460;2022-08-19T08:06:14;54.78;;;31.67;;
58472;SDS011;44775;51.564;5.460;2022-08-19T08:08:59;50.50;;;33.38;;
58472;SDS011;44775;51.564;5.460;2022-08-19T08:11:47;50.15;;;33.47;;
58472;SDS011;44775;51.564;5.460;2022-08-19T08:14:19;50.47;;;34.45;;
58472;SDS011;44775;51.564;5.460;2022-08-19T08:16:47;48.22;;;34.55;;
58472;SDS011;44775;51.564;5.460;2022-08-19T08:19:15;55.10;;;35.40;;
58472;SDS011;44775;51.564;5.460;2022-08-19T08:21:41;53.72;;;36.03;;
58472;SDS011;44775;51.564;5.460;2022-08-19T08:24:07;55.83;;;38.78;;
58472;SDS011;44775;51.564;5.460;2022-08-19T08:26:33;52.92;;;37.10;;
58472;SDS011;44775;51.564;5.460;2022-08-19T08:28:58;54.47;;;37.33;;
58472;SDS011;44775;51.564;5.460;2022-08-19T08:31:24;52.22;;;36.75;;
58472;SDS011;44775;51.564;5.460;2022-08-19T08:33:49;50.78;;;35.35;;
58472;SDS011;44775;51.564;5.460;2022-08-19T08:36:15;53.47;;;34.88;;
58472;SDS011;44775;51.564;5.460;2022-08-19T08:38:42;50.42;;;35.25;;
58472;SDS011;44775;51.564;5.460;2022-08-19T08:41:22;50.80;;;36.20;;
58472;SDS011;44775;51.564;5.460;2022-08-19T08:43:59;53.45;;;36.15;;
58472;SDS011;44775;51.564;5.460;2022-08-19T08:46:39;46.85;;;33.55;;
58472;SDS011;44775;51.564;5.460;2022-08-19T08:52:06;41.92;;;30.70;;
58472;SDS011;44775;51.564;5.460;2022-08-19T08:54:40;44.42;;;31.33;;
58472;SDS011;44775;51.564;5.460;2022-08-19T08:57:11;45.35;;;31.50;;
58472;SDS011;44775;51.564;5.460;2022-08-19T08:59:40;44.05;;;30.90;;
58472;SDS011;44775;51.564;5.460;2022-08-19T09:02:08;44.58;;;31.35;;
58472;SDS011;44775;51.564;5.460;2022-08-19T09:04:37;43.17;;;30.63;;
58472;SDS011;44775;51.564;5.460;2022-08-19T09:07:47;46.45;;;31.00;;
58472;SDS011;44775;51.564;5.460;2022-08-19T09:10:04;44.92;;;30.80;;
58472;SDS011;44775;51.564;5.460;2022-08-19T09:15:29;46.67;;;31.92;;
58472;SDS011;44775;51.564;5.460;2022-08-19T09:18:10;44.47;;;31.58;;
58472;SDS011;44775;51.564;5.460;2022-08-19T09:20:36;46.88;;;31.92;;
58472;SDS011;44775;51.564;5.460;2022-08-19T09:23:02;46.55;;;32.60;;
58472;SDS011;44775;51.564;5.460;2022-08-19T09:25:28;43.88;;;31.45;;
58472;SDS011;44775;51.564;5.460;2022-08-19T09:27:55;45.60;;;32.53;;
58472;SDS011;44775;51.564;5.460;2022-08-19T09:30:25;42.92;;;31.00;;
58472;SDS011;44775;51.564;5.460;2022-08-19T09:32:53;40.70;;;29.25;;
58472;SDS011;44775;51.564;5.460;2022-08-19T09:35:19;43.15;;;29.42;;
58472;SDS011;44775;51.564;5.460;2022-08-19T09:37:49;40.25;;;28.58;;
58472;SDS011;44775;51.564;5.460;2022-08-19T09:40:16;42.38;;;30.08;;
58472;SDS011;44775;51.564;5.460;2022-08-19T09:42:43;39.45;;;29.23;;
58472;SDS011;44775;51.564;5.460;2022-08-19T09:45:11;45.08;;;30.08;;
58472;SDS011;44775;51.564;5.460;2022-08-19T09:47:36;42.97;;;30.50;;
58472;SDS011;44775;51.564;5.460;2022-08-19T09:50:06;45.05;;;30.90;;
58472;SDS011;44775;51.564;5.460;2022-08-19T09:52:33;42.92;;;30.40;;
58472;SDS011;44775;51.564;5.460;2022-08-19T09:55:02;43.47;;;29.98;;
58472;SDS011;44775;51.564;5.460;2022-08-19T09:57:31;40.35;;;29.95;;
58472;SDS011;44775;51.564;5.460;2022-08-19T09:59:57;44.70;;;29.00;;
58472;SDS011;44775;51.564;5.460;2022-08-19T10:02:23;45.92;;;32.10;;
58472;SDS011;44775;51.564;5.460;2022-08-19T10:04:49;47.35;;;31.92;;
58472;SDS011;44775;51.564;5.460;2022-08-19T10:07:34;47.17;;;31.65;;
58472;SDS011;44775;51.564;5.460;2022-08-19T10:10:00;47.78;;;32.47;;
58472;SDS011;44775;51.564;5.460;2022-08-19T10:12:26;45.70;;;32.30;;
58472;SDS011;44775;51.564;5.460;2022-08-19T10:14:51;46.90;;;32.33;;
58472;SDS011;44775;51.564;5.460;2022-08-19T10:17:18;46.30;;;32.97;;
58472;SDS011;44775;51.564;5.460;2022-08-19T10:19:45;48.40;;;33.42;;
58472;SDS011;44775;51.564;5.460;2022-08-19T10:22:10;53.53;;;34.10;;
58472;SDS011;44775;51.564;5.460;2022-08-19T10:24:38;46.95;;;33.90;;
58472;SDS011;44775;51.564;5.460;2022-08-19T10:27:04;47.72;;;32.72;;
58472;SDS011;44775;51.564;5.460;2022-08-19T10:29:30;48.38;;;30.55;;
58472;SDS011;44775;51.564;5.460;2022-08-19T10:31:57;39.53;;;30.23;;
58472;SDS011;44775;51.564;5.460;2022-08-19T10:34:25;44.83;;;30.10;;
58472;SDS011;44775;51.564;5.460;2022-08-19T10:36:51;38.53;;;28.75;;
58472;SDS011;44775;51.564;5.460;2022-08-19T10:39:16;40.00;;;30.35;;
58472;SDS011;44775;51.564;5.460;2022-08-19T10:41:42;45.30;;;30.30;;
58472;SDS011;44775;51.564;5.460;2022-08-19T10:44:09;40.63;;;28.63;;
58472;SDS011;44775;51.564;5.460;2022-08-19T10:46:38;39.60;;;28.70;;
58472;SDS011;44775;51.564;5.460;2022-08-19T10:49:06;42.78;;;29.40;;
58472;SDS011;44775;51.564;5.460;2022-08-19T10:51:33;41.72;;;30.10;;
58472;SDS011;44775;51.564;5.460;2022-08-19T10:54:18;39.88;;;28.65;;
58472;SDS011;44775;51.564;5.460;2022-08-19T10:56:43;48.28;;;31.48;;
58472;SDS011;44775;51.564;5.460;2022-08-19T11:01:47;39.38;;;28.83;;
58472;SDS011;44775;51.564;5.460;2022-08-19T11:04:14;39.92;;;28.38;;
58472;SDS011;44775;51.564;5.460;2022-08-19T11:06:42;37.13;;;26.35;;
58472;SDS011;44775;51.564;5.460;2022-08-19T11:09:12;38.30;;;26.70;;
58472;SDS011;44775;51.564;5.460;2022-08-19T11:11:41;35.88;;;25.98;;
58472;SDS011;44775;51.564;5.460;2022-08-19T11:14:08;36.65;;;26.52;;
58472;SDS011;44775;51.564;5.460;2022-08-19T11:16:35;36.27;;;26.33;;
58472;SDS011;44775;51.564;5.460;2022-08-19T11:19:04;36.38;;;28.15;;
58472;SDS011;44775;51.564;5.460;2022-08-19T11:21:33;37.58;;;28.25;;
58472;SDS011;44775;51.564;5.460;2022-08-19T11:24:01;40.58;;;27.60;;
58472;SDS011;44775;51.564;5.460;2022-08-19T11:26:32;40.45;;;28.38;;
58472;SDS011;44775;51.564;5.460;2022-08-19T11:28:58;36.63;;;27.05;;
58472;SDS011;44775;51.564;5.460;2022-08-19T11:31:26;34.55;;;27.27;;
58472;SDS011;44775;51.564;5.460;2022-08-19T11:33:56;33.83;;;25.90;;
58472;SDS011;44775;51.564;5.460;2022-08-19T11:36:22;30.10;;;25.08;;
58472;SDS011;44775;51.564;5.460;2022-08-19T11:38:48;33.63;;;24.27;;
58472;SDS011;44775;51.564;5.460;2022-08-19T11:41:15;30.67;;;22.33;;
58472;SDS011;44775;51.564;5.460;2022-08-19T11:43:43;36.35;;;24.85;;
58472;SDS011;44775;51.564;5.460;2022-08-19T11:46:09;31.88;;;23.25;;
58472;SDS011;44775;51.564;5.460;2022-08-19T11:51:04;22.25;;;19.10;;
58472;SDS011;44775;51.564;5.460;2022-08-19T11:53:32;28.42;;;21.52;;
58472;SDS011;44775;51.564;5.460;2022-08-19T11:55:59;26.25;;;21.67;;
58472;SDS011;44775;51.564;5.460;2022-08-19T11:58:25;25.42;;;19.73;;
58472;SDS011;44775;51.564;5.460;2022-08-19T12:00:50;26.92;;;21.13;;
58472;SDS011;44775;51.564;5.460;2022-08-19T12:03:19;21.58;;;18.10;;
58472;SDS011;44775;51.564;5.460;2022-08-19T12:05:45;27.85;;;20.20;;
58472;SDS011;44775;51.564;5.460;2022-08-19T12:08:10;23.85;;;18.55;;
58472;SDS011;44775;51.564;5.460;2022-08-19T12:10:38;24.50;;;17.58;;
58472;SDS011;44775;51.564;5.460;2022-08-19T12:13:04;18.13;;;15.68;;
58472;SDS011;44775;51.564;5.460;2022-08-19T12:15:34;23.30;;;17.07;;
58472;SDS011;44775;51.564;5.460;2022-08-19T12:18:08;23.05;;;17.98;;
58472;SDS011;44775;51.564;5.460;2022-08-19T12:20:38;24.45;;;18.50;;
58472;SDS011;44775;51.564;5.460;2022-08-19T12:23:05;24.75;;;18.08;;
58472;SDS011;44775;51.564;5.460;2022-08-19T12:25:33;26.70;;;20.45;;
58472;SDS011;44775;51.564;5.460;2022-08-19T12:27:59;29.33;;;21.23;;
58472;SDS011;44775;51.564;5.460;2022-08-19T12:30:25;27.17;;;21.50;;
58472;SDS011;44775;51.564;5.460;2022-08-19T12:32:51;30.92;;;22.65;;
58472;SDS011;44775;51.564;5.460;2022-08-19T12:35:17;28.50;;;22.08;;
58472;SDS011;44775;51.564;5.460;2022-08-19T12:37:45;28.08;;;22.13;;
58472;SDS011;44775;51.564;5.460;2022-08-19T12:40:12;30.25;;;23.40;;
58472;SDS011;44775;51.564;5.460;2022-08-19T12:42:39;29.27;;;22.73;;
58472;SDS011;44775;51.564;5.460;2022-08-19T12:45:09;31.15;;;22.95;;
58472;SDS011;44775;51.564;5.460;2022-08-19T12:47:36;27.05;;;21.63;;
58472;SDS011;44775;51.564;5.460;2022-08-19T12:50:02;27.40;;;21.73;;
58472;SDS011;44775;51.564;5.460;2022-08-19T12:52:28;27.30;;;22.30;;
58472;SDS011;44775;51.564;5.460;2022-08-19T12:54:54;28.90;;;22.15;;
58472;SDS011;44775;51.564;5.460;2022-08-19T12:57:27;30.08;;;22.20;;
58472;SDS011;44775;51.564;5.460;2022-08-19T12:59:53;24.55;;;20.65;;
58472;SDS011;44775;51.564;5.460;2022-08-19T13:02:18;26.67;;;20.52;;
58472;SDS011;44775;51.564;5.460;2022-08-19T13:04:44;25.13;;;19.88;;
58472;SDS011;44775;51.564;5.460;2022-08-19T13:07:10;28.70;;;19.95;;
58472;SDS011;44775;51.564;5.460;2022-08-19T13:09:35;26.45;;;20.23;;
58472;SDS011;44775;51.564;5.460;2022-08-19T13:12:02;27.70;;;21.30;;
58472;SDS011;44775;51.564;5.460;2022-08-19T13:14:28;28.98;;;21.00;;
58472;SDS011;44775;51.564;5.460;2022-08-19T13:16:55;30.40;;;20.97;;
58472;SDS011;44775;51.564;5.460;2022-08-19T13:19:22;32.42;;;23.58;;
58472;SDS011;44775;51.564;5.460;2022-08-19T13:21:49;28.70;;;22.27;;
58472;SDS011;44775;51.564;5.460;2022-08-19T13:24:15;31.33;;;22.55;;
58472;SDS011;44775;51.564;5.460;2022-08-19T13:26:41;33.20;;;23.30;;
58472;SDS011;44775;51.564;5.460;2022-08-19T13:29:06;31.00;;;21.67;;
58472;SDS011;44775;51.564;5.460;2022-08-19T13:31:50;29.95;;;22.63;;
58472;SDS011;44775;51.564;5.460;2022-08-19T13:34:34;29.58;;;21.73;;
58472;SDS011;44775;51.564;5.460;2022-08-19T13:37:00;27.63;;;19.92;;
58472;SDS011;44775;51.564;5.460;2022-08-19T13:39:33;26.77;;;19.95;;
58472;SDS011;44775;51.564;5.460;2022-08-19T13:42:00;27.38;;;20.02;;
58472;SDS011;44775;51.564;5.460;2022-08-19T13:44:27;27.23;;;19.42;;
58472;SDS011;44775;51.564;5.460;2022-08-19T13:46:54;29.33;;;19.40;;
58472;SDS011;44775;51.564;5.460;2022-08-19T13:49:27;26.88;;;18.88;;
58472;SDS011;44775;51.564;5.460;2022-08-19T13:51:56;25.65;;;18.35;;
58472;SDS011;44775;51.564;5.460;2022-08-19T13:54:21;23.52;;;16.60;;
58472;SDS011;44775;51.564;5.460;2022-08-19T13:56:47;21.63;;;14.27;;
58472;SDS011;44775;51.564;5.460;2022-08-19T13:59:13;21.70;;;15.27;;
58472;SDS011;44775;51.564;5.460;2022-08-19T14:01:39;22.08;;;15.35;;
58472;SDS011;44775;51.564;5.460;2022-08-19T14:04:06;20.97;;;15.20;;
58472;SDS011;44775;51.564;5.460;2022-08-19T14:06:32;21.42;;;15.07;;
58472;SDS011;44775;51.564;5.460;2022-08-19T14:08:58;20.63;;;14.43;;
58472;SDS011;44775;51.564;5.460;2022-08-19T14:11:26;21.67;;;14.70;;
58472;SDS011;44775;51.564;5.460;2022-08-19T14:13:52;21.92;;;15.70;;
58472;SDS011;44775;51.564;5.460;2022-08-19T14:16:18;23.80;;;14.98;;
58472;SDS011;44775;51.564;5.460;2022-08-19T14:18:43;18.88;;;14.77;;
58472;SDS011;44775;51.564;5.460;2022-08-19T14:21:14;22.50;;;14.63;;
58472;SDS011;44775;51.564;5.460;2022-08-19T14:23:51;19.27;;;13.88;;
58472;SDS011;44775;51.564;5.460;2022-08-19T14:26:20;17.92;;;13.65;;
58472;SDS011;44775;51.564;5.460;2022-08-19T14:28:47;16.00;;;12.68;;
58472;SDS011;44775;51.564;5.460;2022-08-19T14:31:13;16.83;;;12.32;;
58472;SDS011;44775;51.564;5.460;2022-08-19T14:33:43;13.35;;;10.68;;
58472;SDS011;44775;51.564;5.460;2022-08-19T14:36:09;13.52;;;10.75;;
58472;SDS011;44775;51.564;5.460;2022-08-19T14:38:34;9.48;;;8.25;;
58472;SDS011;44775;51.564;5.460;2022-08-19T14:41:14;9.32;;;6.72;;
58472;SDS011;44775;51.564;5.460;2022-08-19T14:43:46;9.60;;;6.90;;